sensor_id;sensor_type;location;lat;lon;timestamp;P1;durP1;ratioP1;P2;durP2;ratioP2
68718;SDS011;55696;52.138;5.444;2023-03-14T00:00:51;17.38;;;4.07;;
68718;SDS011;55696;52.138;5.444;2023-03-14T00:03:18;27.37;;;4.37;;
68718;SDS011;55696;52.138;5.444;2023-03-14T00:05:44;15.32;;;4.20;;
68718;SDS011;55696;52.138;5.444;2023-03-14T00:08:11;15.52;;;4.57;;
68718;SDS011;55696;52.138;5.444;2023-03-14T00:10:38;16.92;;;4.03;;
68718;SDS011;55696;52.138;5.444;2023-03-14T00:13:05;15.05;;;4.63;;
68718;SDS011;55696;52.138;5.444;2023-03-14T00:15:35;20.03;;;4.13;;
68718;SDS011;55696;52.138;5.444;2023-03-14T00:18:02;17.13;;;4.10;;
68718;SDS011;55696;52.138;5.444;2023-03-14T00:20:29;19.42;;;4.45;;
68718;SDS011;55696;52.138;5.444;2023-03-14T00:22:55;19.17;;;3.97;;
68718;SDS011;55696;52.138;5.444;2023-03-14T00:25:22;14.88;;;4.13;;
68718;SDS011;55696;52.138;5.444;2023-03-14T00:27:52;16.00;;;3.67;;
68718;SDS011;55696;52.138;5.444;2023-03-14T00:30:18;19.13;;;3.55;;
68718;SDS011;55696;52.138;5.444;2023-03-14T00:32:45;17.17;;;4.43;;
68718;SDS011;55696;52.138;5.444;2023-03-14T00:35:12;16.10;;;3.60;;
68718;SDS011;55696;52.138;5.444;2023-03-14T00:37:39;16.10;;;3.28;;
68718;SDS011;55696;52.138;5.444;2023-03-14T00:40:06;11.93;;;3.37;;
68718;SDS011;55696;52.138;5.444;2023-03-14T00:42:34;10.07;;;2.97;;
68718;SDS011;55696;52.138;5.444;2023-03-14T00:45:01;13.98;;;2.90;;
68718;SDS011;55696;52.138;5.444;2023-03-14T00:47:27;13.00;;;2.40;;
68718;SDS011;55696;52.138;5.444;2023-03-14T00:49:54;10.40;;;2.78;;
68718;SDS011;55696;52.138;5.444;2023-03-14T00:52:21;14.37;;;2.20;;
68718;SDS011;55696;52.138;5.444;2023-03-14T00:54:48;15.43;;;2.90;;
68718;SDS011;55696;52.138;5.444;2023-03-14T00:57:14;16.60;;;2.83;;
68718;SDS011;55696;52.138;5.444;2023-03-14T00:59:41;9.90;;;2.28;;
68718;SDS011;55696;52.138;5.444;2023-03-14T01:02:08;13.10;;;2.58;;
68718;SDS011;55696;52.138;5.444;2023-03-14T01:04:35;11.97;;;2.40;;
68718;SDS011;55696;52.138;5.444;2023-03-14T01:07:03;8.07;;;2.15;;
68718;SDS011;55696;52.138;5.444;2023-03-14T01:09:30;14.45;;;2.85;;
68718;SDS011;55696;52.138;5.444;2023-03-14T01:11:57;12.82;;;2.55;;
68718;SDS011;55696;52.138;5.444;2023-03-14T01:14:24;8.15;;;2.10;;
68718;SDS011;55696;52.138;5.444;2023-03-14T01:16:51;10.67;;;2.50;;
68718;SDS011;55696;52.138;5.444;2023-03-14T01:19:18;21.15;;;3.22;;
68718;SDS011;55696;52.138;5.444;2023-03-14T01:21:45;10.52;;;2.13;;
68718;SDS011;55696;52.138;5.444;2023-03-14T01:24:12;9.18;;;2.63;;
68718;SDS011;55696;52.138;5.444;2023-03-14T01:26:39;11.63;;;2.13;;
68718;SDS011;55696;52.138;5.444;2023-03-14T01:29:07;11.20;;;2.60;;
68718;SDS011;55696;52.138;5.444;2023-03-14T01:31:37;12.68;;;2.53;;
68718;SDS011;55696;52.138;5.444;2023-03-14T01:34:04;8.45;;;2.60;;
68718;SDS011;55696;52.138;5.444;2023-03-14T01:36:31;11.10;;;2.30;;
68718;SDS011;55696;52.138;5.444;2023-03-14T01:39:00;12.98;;;2.25;;
68718;SDS011;55696;52.138;5.444;2023-03-14T01:41:27;8.10;;;1.80;;
68718;SDS011;55696;52.138;5.444;2023-03-14T01:43:56;10.27;;;1.85;;
68718;SDS011;55696;52.138;5.444;2023-03-14T01:46:25;10.13;;;1.55;;
68718;SDS011;55696;52.138;5.444;2023-03-14T01:48:58;13.27;;;2.42;;
68718;SDS011;55696;52.138;5.444;2023-03-14T01:51:41;9.27;;;1.63;;
68718;SDS011;55696;52.138;5.444;2023-03-14T01:54:31;7.37;;;1.27;;
68718;SDS011;55696;52.138;5.444;2023-03-14T01:57:14;10.40;;;1.60;;
68718;SDS011;55696;52.138;5.444;2023-03-14T01:59:54;10.35;;;2.25;;
68718;SDS011;55696;52.138;5.444;2023-03-14T02:02:26;11.15;;;1.88;;
68718;SDS011;55696;52.138;5.444;2023-03-14T02:04:55;7.28;;;1.80;;
68718;SDS011;55696;52.138;5.444;2023-03-14T02:10:34;8.43;;;1.70;;
68718;SDS011;55696;52.138;5.444;2023-03-14T02:13:05;12.75;;;2.15;;
68718;SDS011;55696;52.138;5.444;2023-03-14T02:15:55;5.75;;;1.40;;
68718;SDS011;55696;52.138;5.444;2023-03-14T02:18:45;9.15;;;1.73;;
68718;SDS011;55696;52.138;5.444;2023-03-14T02:21:29;6.77;;;1.63;;
68718;SDS011;55696;52.138;5.444;2023-03-14T02:24:15;11.20;;;2.00;;
68718;SDS011;55696;52.138;5.444;2023-03-14T02:27:06;9.05;;;1.95;;
68718;SDS011;55696;52.138;5.444;2023-03-14T02:29:51;9.15;;;1.45;;
68718;SDS011;55696;52.138;5.444;2023-03-14T02:32:21;10.50;;;2.05;;
68718;SDS011;55696;52.138;5.444;2023-03-14T02:34:51;8.07;;;1.87;;
68718;SDS011;55696;52.138;5.444;2023-03-14T02:37:21;6.38;;;1.48;;
68718;SDS011;55696;52.138;5.444;2023-03-14T02:39:52;7.60;;;1.42;;
68718;SDS011;55696;52.138;5.444;2023-03-14T02:42:20;6.85;;;1.83;;
68718;SDS011;55696;52.138;5.444;2023-03-14T02:44:55;8.82;;;2.42;;
68718;SDS011;55696;52.138;5.444;2023-03-14T02:47:26;10.77;;;2.20;;
68718;SDS011;55696;52.138;5.444;2023-03-14T02:50:03;8.15;;;2.45;;
68718;SDS011;55696;52.138;5.444;2023-03-14T02:52:34;8.15;;;1.98;;
68718;SDS011;55696;52.138;5.444;2023-03-14T02:55:01;8.93;;;2.00;;
68718;SDS011;55696;52.138;5.444;2023-03-14T02:57:30;7.60;;;1.92;;
68718;SDS011;55696;52.138;5.444;2023-03-14T02:59:58;11.17;;;2.20;;
68718;SDS011;55696;52.138;5.444;2023-03-14T03:02:27;10.18;;;2.58;;
68718;SDS011;55696;52.138;5.444;2023-03-14T03:04:54;11.50;;;2.85;;
68718;SDS011;55696;52.138;5.444;2023-03-14T03:07:21;9.98;;;2.55;;
68718;SDS011;55696;52.138;5.444;2023-03-14T03:09:48;9.85;;;2.38;;
68718;SDS011;55696;52.138;5.444;2023-03-14T03:12:15;11.27;;;2.63;;
68718;SDS011;55696;52.138;5.444;2023-03-14T03:14:43;7.82;;;2.80;;
68718;SDS011;55696;52.138;5.444;2023-03-14T03:17:10;9.15;;;2.38;;
68718;SDS011;55696;52.138;5.444;2023-03-14T03:19:37;9.95;;;2.58;;
68718;SDS011;55696;52.138;5.444;2023-03-14T03:22:04;7.07;;;2.50;;
68718;SDS011;55696;52.138;5.444;2023-03-14T03:24:31;7.90;;;2.40;;
68718;SDS011;55696;52.138;5.444;2023-03-14T03:26:58;11.63;;;2.80;;
68718;SDS011;55696;52.138;5.444;2023-03-14T03:29:24;11.30;;;2.25;;
68718;SDS011;55696;52.138;5.444;2023-03-14T03:31:52;8.77;;;2.08;;
68718;SDS011;55696;52.138;5.444;2023-03-14T03:34:19;6.97;;;2.25;;
68718;SDS011;55696;52.138;5.444;2023-03-14T03:36:49;16.80;;;2.90;;
68718;SDS011;55696;52.138;5.444;2023-03-14T03:39:16;11.38;;;2.33;;
68718;SDS011;55696;52.138;5.444;2023-03-14T03:41:46;9.20;;;2.53;;
68718;SDS011;55696;52.138;5.444;2023-03-14T03:44:12;10.43;;;2.45;;
68718;SDS011;55696;52.138;5.444;2023-03-14T03:46:40;11.75;;;2.20;;
68718;SDS011;55696;52.138;5.444;2023-03-14T03:49:08;13.87;;;2.37;;
68718;SDS011;55696;52.138;5.444;2023-03-14T03:51:35;8.10;;;2.17;;
68718;SDS011;55696;52.138;5.444;2023-03-14T03:54:02;9.35;;;2.10;;
68718;SDS011;55696;52.138;5.444;2023-03-14T03:56:31;11.73;;;2.30;;
68718;SDS011;55696;52.138;5.444;2023-03-14T03:58:59;5.68;;;1.95;;
68718;SDS011;55696;52.138;5.444;2023-03-14T04:01:26;8.83;;;1.93;;
68718;SDS011;55696;52.138;5.444;2023-03-14T04:03:56;10.98;;;2.20;;
68718;SDS011;55696;52.138;5.444;2023-03-14T04:06:23;13.73;;;2.65;;
68718;SDS011;55696;52.138;5.444;2023-03-14T04:08:53;9.05;;;2.10;;
68718;SDS011;55696;52.138;5.444;2023-03-14T04:11:31;9.82;;;2.50;;
68718;SDS011;55696;52.138;5.444;2023-03-14T04:14:05;11.67;;;2.83;;
68718;SDS011;55696;52.138;5.444;2023-03-14T04:16:32;13.75;;;2.22;;
68718;SDS011;55696;52.138;5.444;2023-03-14T04:19:06;15.00;;;2.28;;
68718;SDS011;55696;52.138;5.444;2023-03-14T04:21:34;10.35;;;2.63;;
68718;SDS011;55696;52.138;5.444;2023-03-14T04:24:01;7.82;;;2.10;;
68718;SDS011;55696;52.138;5.444;2023-03-14T04:26:31;8.83;;;2.43;;
68718;SDS011;55696;52.138;5.444;2023-03-14T04:28:58;10.35;;;2.47;;
68718;SDS011;55696;52.138;5.444;2023-03-14T04:31:25;12.57;;;2.90;;
68718;SDS011;55696;52.138;5.444;2023-03-14T04:33:52;14.32;;;2.38;;
68718;SDS011;55696;52.138;5.444;2023-03-14T04:36:27;11.27;;;3.15;;
68718;SDS011;55696;52.138;5.444;2023-03-14T04:38:54;8.47;;;2.27;;
68718;SDS011;55696;52.138;5.444;2023-03-14T04:41:23;12.45;;;2.60;;
68718;SDS011;55696;52.138;5.444;2023-03-14T04:43:50;10.07;;;2.05;;
68718;SDS011;55696;52.138;5.444;2023-03-14T04:46:17;10.85;;;1.98;;
68718;SDS011;55696;52.138;5.444;2023-03-14T04:48:44;8.80;;;1.75;;
68718;SDS011;55696;52.138;5.444;2023-03-14T04:51:11;10.63;;;2.20;;
68718;SDS011;55696;52.138;5.444;2023-03-14T04:53:38;8.40;;;2.13;;
68718;SDS011;55696;52.138;5.444;2023-03-14T04:56:08;9.27;;;1.80;;
68718;SDS011;55696;52.138;5.444;2023-03-14T04:58:37;12.60;;;2.47;;
68718;SDS011;55696;52.138;5.444;2023-03-14T05:01:05;11.48;;;2.53;;
68718;SDS011;55696;52.138;5.444;2023-03-14T05:04:00;11.23;;;2.63;;
68718;SDS011;55696;52.138;5.444;2023-03-14T05:06:46;6.07;;;2.03;;
68718;SDS011;55696;52.138;5.444;2023-03-14T05:09:48;14.05;;;1.92;;
68718;SDS011;55696;52.138;5.444;2023-03-14T05:12:38;11.27;;;2.47;;
68718;SDS011;55696;52.138;5.444;2023-03-14T05:15:20;8.88;;;1.98;;
68718;SDS011;55696;52.138;5.444;2023-03-14T05:17:58;8.30;;;1.90;;
68718;SDS011;55696;52.138;5.444;2023-03-14T05:20:51;8.00;;;2.20;;
68718;SDS011;55696;52.138;5.444;2023-03-14T05:23:41;9.77;;;2.15;;
68718;SDS011;55696;52.138;5.444;2023-03-14T05:26:26;9.23;;;2.38;;
68718;SDS011;55696;52.138;5.444;2023-03-14T05:29:14;9.02;;;1.98;;
68718;SDS011;55696;52.138;5.444;2023-03-14T05:32:06;9.43;;;2.20;;
68718;SDS011;55696;52.138;5.444;2023-03-14T05:34:45;6.95;;;2.15;;
68718;SDS011;55696;52.138;5.444;2023-03-14T05:37:32;7.72;;;1.80;;
68718;SDS011;55696;52.138;5.444;2023-03-14T05:40:19;7.82;;;1.98;;
68718;SDS011;55696;52.138;5.444;2023-03-14T05:42:55;9.57;;;2.50;;
68718;SDS011;55696;52.138;5.444;2023-03-14T05:45:40;6.67;;;2.57;;
68718;SDS011;55696;52.138;5.444;2023-03-14T05:48:40;10.32;;;2.72;;
68718;SDS011;55696;52.138;5.444;2023-03-14T05:51:07;6.20;;;1.98;;
68718;SDS011;55696;52.138;5.444;2023-03-14T05:53:52;10.60;;;2.63;;
68718;SDS011;55696;52.138;5.444;2023-03-14T05:56:39;9.52;;;2.65;;
68718;SDS011;55696;52.138;5.444;2023-03-14T05:59:26;7.03;;;2.20;;
68718;SDS011;55696;52.138;5.444;2023-03-14T06:02:02;7.35;;;3.30;;
68718;SDS011;55696;52.138;5.444;2023-03-14T06:04:40;7.93;;;3.45;;
68718;SDS011;55696;52.138;5.444;2023-03-14T06:07:07;8.07;;;3.42;;
68718;SDS011;55696;52.138;5.444;2023-03-14T06:09:33;12.90;;;3.13;;
68718;SDS011;55696;52.138;5.444;2023-03-14T06:12:01;9.17;;;3.60;;
68718;SDS011;55696;52.138;5.444;2023-03-14T06:14:33;10.73;;;3.50;;
68718;SDS011;55696;52.138;5.444;2023-03-14T06:17:00;7.63;;;2.85;;
68718;SDS011;55696;52.138;5.444;2023-03-14T06:19:32;8.40;;;3.30;;
68718;SDS011;55696;52.138;5.444;2023-03-14T06:21:58;8.23;;;2.97;;
68718;SDS011;55696;52.138;5.444;2023-03-14T06:24:25;9.03;;;2.87;;
68718;SDS011;55696;52.138;5.444;2023-03-14T06:26:52;7.30;;;3.20;;
68718;SDS011;55696;52.138;5.444;2023-03-14T06:29:19;9.00;;;3.17;;
68718;SDS011;55696;52.138;5.444;2023-03-14T06:31:46;7.38;;;3.88;;
68718;SDS011;55696;52.138;5.444;2023-03-14T06:34:15;7.55;;;3.22;;
68718;SDS011;55696;52.138;5.444;2023-03-14T06:36:42;9.13;;;3.33;;
68718;SDS011;55696;52.138;5.444;2023-03-14T06:39:09;11.90;;;3.55;;
68718;SDS011;55696;52.138;5.444;2023-03-14T06:41:40;9.30;;;4.10;;
68718;SDS011;55696;52.138;5.444;2023-03-14T06:44:08;9.25;;;3.28;;
68718;SDS011;55696;52.138;5.444;2023-03-14T06:46:35;9.13;;;3.40;;
68718;SDS011;55696;52.138;5.444;2023-03-14T06:49:01;6.43;;;2.80;;
68718;SDS011;55696;52.138;5.444;2023-03-14T06:51:29;7.85;;;1.77;;
68718;SDS011;55696;52.138;5.444;2023-03-14T06:53:56;7.20;;;1.83;;
68718;SDS011;55696;52.138;5.444;2023-03-14T06:56:26;3.95;;;1.20;;
68718;SDS011;55696;52.138;5.444;2023-03-14T06:58:55;3.80;;;1.38;;
68718;SDS011;55696;52.138;5.444;2023-03-14T07:01:25;2.33;;;1.20;;
68718;SDS011;55696;52.138;5.444;2023-03-14T07:03:58;3.10;;;0.95;;
68718;SDS011;55696;52.138;5.444;2023-03-14T07:06:26;1.95;;;0.80;;
68718;SDS011;55696;52.138;5.444;2023-03-14T07:08:55;1.80;;;0.70;;
68718;SDS011;55696;52.138;5.444;2023-03-14T07:11:22;4.65;;;1.27;;
68718;SDS011;55696;52.138;5.444;2023-03-14T07:13:49;3.53;;;1.00;;
68718;SDS011;55696;52.138;5.444;2023-03-14T07:16:16;3.72;;;0.93;;
68718;SDS011;55696;52.138;5.444;2023-03-14T07:18:43;2.58;;;1.27;;
68718;SDS011;55696;52.138;5.444;2023-03-14T07:21:10;5.30;;;1.20;;
68718;SDS011;55696;52.138;5.444;2023-03-14T07:23:37;3.13;;;0.90;;
68718;SDS011;55696;52.138;5.444;2023-03-14T07:26:05;4.23;;;1.10;;
68718;SDS011;55696;52.138;5.444;2023-03-14T07:28:34;3.47;;;1.25;;
68718;SDS011;55696;52.138;5.444;2023-03-14T07:31:06;3.30;;;1.20;;
68718;SDS011;55696;52.138;5.444;2023-03-14T07:33:33;3.40;;;0.90;;
68718;SDS011;55696;52.138;5.444;2023-03-14T07:36:01;2.58;;;0.90;;
68718;SDS011;55696;52.138;5.444;2023-03-14T07:38:28;3.00;;;1.13;;
68718;SDS011;55696;52.138;5.444;2023-03-14T07:41:08;6.80;;;1.20;;
68718;SDS011;55696;52.138;5.444;2023-03-14T07:43:40;2.72;;;1.15;;
68718;SDS011;55696;52.138;5.444;2023-03-14T07:46:07;3.63;;;1.20;;
68718;SDS011;55696;52.138;5.444;2023-03-14T07:48:34;2.85;;;0.90;;
68718;SDS011;55696;52.138;5.444;2023-03-14T07:51:01;7.10;;;1.83;;
68718;SDS011;55696;52.138;5.444;2023-03-14T07:53:28;4.03;;;1.10;;
68718;SDS011;55696;52.138;5.444;2023-03-14T07:55:54;2.92;;;1.20;;
68718;SDS011;55696;52.138;5.444;2023-03-14T07:58:21;3.70;;;1.00;;
68718;SDS011;55696;52.138;5.444;2023-03-14T08:00:48;3.35;;;0.90;;
68718;SDS011;55696;52.138;5.444;2023-03-14T08:03:16;3.60;;;1.17;;
68718;SDS011;55696;52.138;5.444;2023-03-14T08:05:43;7.32;;;0.80;;
68718;SDS011;55696;52.138;5.444;2023-03-14T08:08:13;6.00;;;0.95;;
68718;SDS011;55696;52.138;5.444;2023-03-14T08:10:39;3.10;;;0.93;;
68718;SDS011;55696;52.138;5.444;2023-03-14T08:13:06;8.48;;;1.50;;
68718;SDS011;55696;52.138;5.444;2023-03-14T08:15:33;7.70;;;1.50;;
68718;SDS011;55696;52.138;5.444;2023-03-14T08:18:00;6.93;;;0.98;;
68718;SDS011;55696;52.138;5.444;2023-03-14T08:20:27;5.53;;;1.00;;
68718;SDS011;55696;52.138;5.444;2023-03-14T08:22:56;5.03;;;0.95;;
68718;SDS011;55696;52.138;5.444;2023-03-14T08:25:26;2.75;;;1.00;;
68718;SDS011;55696;52.138;5.444;2023-03-14T08:27:54;2.33;;;0.90;;
68718;SDS011;55696;52.138;5.444;2023-03-14T08:30:21;4.07;;;1.00;;
68718;SDS011;55696;52.138;5.444;2023-03-14T08:32:48;3.38;;;0.80;;
68718;SDS011;55696;52.138;5.444;2023-03-14T08:35:15;4.85;;;0.90;;
68718;SDS011;55696;52.138;5.444;2023-03-14T08:37:42;2.28;;;0.70;;
68718;SDS011;55696;52.138;5.444;2023-03-14T08:40:09;1.80;;;1.07;;
68718;SDS011;55696;52.138;5.444;2023-03-14T08:42:39;3.22;;;0.85;;
68718;SDS011;55696;52.138;5.444;2023-03-14T08:45:06;5.05;;;0.88;;
68718;SDS011;55696;52.138;5.444;2023-03-14T08:47:34;6.65;;;1.00;;
68718;SDS011;55696;52.138;5.444;2023-03-14T08:50:02;3.30;;;0.80;;
68718;SDS011;55696;52.138;5.444;2023-03-14T08:52:30;4.77;;;0.83;;
68718;SDS011;55696;52.138;5.444;2023-03-14T08:54:57;7.40;;;1.00;;
68718;SDS011;55696;52.138;5.444;2023-03-14T08:57:25;2.92;;;0.90;;
68718;SDS011;55696;52.138;5.444;2023-03-14T08:59:54;4.70;;;1.33;;
68718;SDS011;55696;52.138;5.444;2023-03-14T09:02:22;4.53;;;0.93;;
68718;SDS011;55696;52.138;5.444;2023-03-14T09:04:49;7.40;;;1.07;;
68718;SDS011;55696;52.138;5.444;2023-03-14T09:07:17;3.90;;;1.05;;
68718;SDS011;55696;52.138;5.444;2023-03-14T09:09:44;9.77;;;1.10;;
68718;SDS011;55696;52.138;5.444;2023-03-14T09:12:11;8.93;;;2.58;;
68718;SDS011;55696;52.138;5.444;2023-03-14T09:14:38;9.77;;;1.30;;
68718;SDS011;55696;52.138;5.444;2023-03-14T09:17:05;8.77;;;1.67;;
68718;SDS011;55696;52.138;5.444;2023-03-14T09:19:32;7.03;;;1.10;;
68718;SDS011;55696;52.138;5.444;2023-03-14T09:21:58;8.90;;;1.35;;
68718;SDS011;55696;52.138;5.444;2023-03-14T09:24:25;9.88;;;1.30;;
68718;SDS011;55696;52.138;5.444;2023-03-14T09:26:52;6.03;;;1.80;;
68718;SDS011;55696;52.138;5.444;2023-03-14T09:29:18;5.47;;;1.47;;
68718;SDS011;55696;52.138;5.444;2023-03-14T09:31:46;6.70;;;2.15;;
68718;SDS011;55696;52.138;5.444;2023-03-14T09:34:13;8.18;;;1.80;;
68718;SDS011;55696;52.138;5.444;2023-03-14T09:36:39;4.80;;;1.45;;
68718;SDS011;55696;52.138;5.444;2023-03-14T09:39:06;8.52;;;2.25;;
68718;SDS011;55696;52.138;5.444;2023-03-14T09:41:34;12.77;;;2.10;;
68718;SDS011;55696;52.138;5.444;2023-03-14T09:44:16;6.93;;;1.63;;
68718;SDS011;55696;52.138;5.444;2023-03-14T09:46:52;8.82;;;2.10;;
68718;SDS011;55696;52.138;5.444;2023-03-14T09:49:25;10.27;;;1.60;;
68718;SDS011;55696;52.138;5.444;2023-03-14T09:52:01;14.77;;;1.63;;
68718;SDS011;55696;52.138;5.444;2023-03-14T09:54:37;11.73;;;2.07;;
68718;SDS011;55696;52.138;5.444;2023-03-14T09:57:11;17.52;;;3.05;;
68718;SDS011;55696;52.138;5.444;2023-03-14T09:59:41;7.88;;;2.30;;
68718;SDS011;55696;52.138;5.444;2023-03-14T10:02:12;18.38;;;2.30;;
68718;SDS011;55696;52.138;5.444;2023-03-14T10:04:43;11.18;;;1.88;;
68718;SDS011;55696;52.138;5.444;2023-03-14T10:07:19;12.23;;;2.13;;
68718;SDS011;55696;52.138;5.444;2023-03-14T10:09:54;9.93;;;1.77;;
68718;SDS011;55696;52.138;5.444;2023-03-14T10:12:34;12.43;;;2.10;;
68718;SDS011;55696;52.138;5.444;2023-03-14T10:15:07;9.98;;;2.17;;
68718;SDS011;55696;52.138;5.444;2023-03-14T10:17:38;11.13;;;1.75;;
68718;SDS011;55696;52.138;5.444;2023-03-14T10:20:15;16.30;;;2.50;;
68718;SDS011;55696;52.138;5.444;2023-03-14T10:25:34;10.20;;;1.98;;
68718;SDS011;55696;52.138;5.444;2023-03-14T10:28:09;17.40;;;2.20;;
68718;SDS011;55696;52.138;5.444;2023-03-14T10:30:54;8.85;;;1.92;;
68718;SDS011;55696;52.138;5.444;2023-03-14T10:33:25;14.53;;;2.90;;
68718;SDS011;55696;52.138;5.444;2023-03-14T10:35:54;11.73;;;2.15;;
68718;SDS011;55696;52.138;5.444;2023-03-14T10:38:24;18.23;;;2.40;;
68718;SDS011;55696;52.138;5.444;2023-03-14T10:40:54;10.77;;;2.15;;
68718;SDS011;55696;52.138;5.444;2023-03-14T10:43:31;11.80;;;1.88;;
68718;SDS011;55696;52.138;5.444;2023-03-14T10:46:04;12.77;;;2.87;;
68718;SDS011;55696;52.138;5.444;2023-03-14T10:48:54;14.05;;;2.35;;
68718;SDS011;55696;52.138;5.444;2023-03-14T10:51:26;13.23;;;2.65;;
68718;SDS011;55696;52.138;5.444;2023-03-14T10:56:33;15.68;;;2.78;;
68718;SDS011;55696;52.138;5.444;2023-03-14T10:59:01;13.90;;;3.13;;
68718;SDS011;55696;52.138;5.444;2023-03-14T11:01:40;18.00;;;2.40;;
68718;SDS011;55696;52.138;5.444;2023-03-14T11:06:57;18.10;;;2.95;;
68718;SDS011;55696;52.138;5.444;2023-03-14T11:09:29;14.35;;;2.13;;
68718;SDS011;55696;52.138;5.444;2023-03-14T11:15:15;14.07;;;1.60;;
68718;SDS011;55696;52.138;5.444;2023-03-14T11:17:57;13.93;;;2.85;;
68718;SDS011;55696;52.138;5.444;2023-03-14T11:21:08;13.68;;;2.55;;
68718;SDS011;55696;52.138;5.444;2023-03-14T11:32:04;8.23;;;2.10;;
68718;SDS011;55696;52.138;5.444;2023-03-14T11:34:50;14.65;;;2.17;;
68718;SDS011;55696;52.138;5.444;2023-03-14T11:37:34;16.15;;;2.10;;
68718;SDS011;55696;52.138;5.444;2023-03-14T11:40:20;7.03;;;1.93;;
68718;SDS011;55696;52.138;5.444;2023-03-14T11:43:11;12.60;;;2.13;;
68718;SDS011;55696;52.138;5.444;2023-03-14T11:45:46;10.32;;;2.38;;
68718;SDS011;55696;52.138;5.444;2023-03-14T11:48:17;13.07;;;1.80;;
68718;SDS011;55696;52.138;5.444;2023-03-14T11:50:52;13.23;;;2.00;;
68718;SDS011;55696;52.138;5.444;2023-03-14T11:53:41;11.80;;;2.10;;
68718;SDS011;55696;52.138;5.444;2023-03-14T11:56:33;8.50;;;2.53;;
68718;SDS011;55696;52.138;5.444;2023-03-14T11:59:11;6.88;;;1.30;;
68718;SDS011;55696;52.138;5.444;2023-03-14T12:04:30;10.75;;;1.55;;
68718;SDS011;55696;52.138;5.444;2023-03-14T12:07:17;14.07;;;2.50;;
68718;SDS011;55696;52.138;5.444;2023-03-14T12:09:52;11.52;;;1.75;;
68718;SDS011;55696;52.138;5.444;2023-03-14T12:12:25;11.50;;;1.80;;
68718;SDS011;55696;52.138;5.444;2023-03-14T12:14:57;12.90;;;2.42;;
68718;SDS011;55696;52.138;5.444;2023-03-14T12:17:27;7.78;;;1.63;;
68718;SDS011;55696;52.138;5.444;2023-03-14T12:20:05;14.27;;;2.17;;
68718;SDS011;55696;52.138;5.444;2023-03-14T12:25:16;7.22;;;1.88;;
68718;SDS011;55696;52.138;5.444;2023-03-14T12:30:26;15.95;;;1.70;;
68718;SDS011;55696;52.138;5.444;2023-03-14T12:35:47;6.32;;;1.25;;
68718;SDS011;55696;52.138;5.444;2023-03-14T12:41:45;5.93;;;1.48;;
68718;SDS011;55696;52.138;5.444;2023-03-14T12:46:57;13.20;;;2.03;;
68718;SDS011;55696;52.138;5.444;2023-03-14T12:49:45;5.10;;;1.48;;
68718;SDS011;55696;52.138;5.444;2023-03-14T12:55:19;7.93;;;1.35;;
68718;SDS011;55696;52.138;5.444;2023-03-14T12:58:09;7.93;;;1.80;;
68718;SDS011;55696;52.138;5.444;2023-03-14T13:00:39;10.40;;;1.50;;
68718;SDS011;55696;52.138;5.444;2023-03-14T13:03:26;6.13;;;1.45;;
68718;SDS011;55696;52.138;5.444;2023-03-14T13:12:01;8.50;;;1.38;;
68718;SDS011;55696;52.138;5.444;2023-03-14T13:14:36;5.77;;;1.50;;
68718;SDS011;55696;52.138;5.444;2023-03-14T13:17:10;4.38;;;1.33;;
68718;SDS011;55696;52.138;5.444;2023-03-14T13:20:00;5.78;;;1.23;;
68718;SDS011;55696;52.138;5.444;2023-03-14T13:22:48;4.47;;;1.38;;
68718;SDS011;55696;52.138;5.444;2023-03-14T13:25:16;5.53;;;1.48;;
68718;SDS011;55696;52.138;5.444;2023-03-14T13:27:44;7.63;;;1.40;;
68718;SDS011;55696;52.138;5.444;2023-03-14T13:32:46;3.90;;;1.08;;
68718;SDS011;55696;52.138;5.444;2023-03-14T13:35:19;4.45;;;1.42;;
68718;SDS011;55696;52.138;5.444;2023-03-14T13:37:55;4.25;;;1.13;;
68718;SDS011;55696;52.138;5.444;2023-03-14T13:40:36;6.73;;;1.37;;
68718;SDS011;55696;52.138;5.444;2023-03-14T13:43:05;7.82;;;1.23;;
68718;SDS011;55696;52.138;5.444;2023-03-14T13:45:47;6.72;;;1.40;;
68718;SDS011;55696;52.138;5.444;2023-03-14T13:48:14;7.97;;;1.23;;
68718;SDS011;55696;52.138;5.444;2023-03-14T13:50:46;7.47;;;1.48;;
68718;SDS011;55696;52.138;5.444;2023-03-14T13:53:18;4.17;;;1.20;;
68718;SDS011;55696;52.138;5.444;2023-03-14T13:55:45;4.05;;;1.30;;
68718;SDS011;55696;52.138;5.444;2023-03-14T13:58:31;6.95;;;1.70;;
68718;SDS011;55696;52.138;5.444;2023-03-14T14:00:59;4.72;;;1.20;;
68718;SDS011;55696;52.138;5.444;2023-03-14T14:03:30;7.72;;;1.23;;
68718;SDS011;55696;52.138;5.444;2023-03-14T14:05:59;6.93;;;1.13;;
68718;SDS011;55696;52.138;5.444;2023-03-14T14:08:26;11.02;;;2.03;;
68718;SDS011;55696;52.138;5.444;2023-03-14T14:10:58;10.55;;;1.75;;
68718;SDS011;55696;52.138;5.444;2023-03-14T14:13:27;9.00;;;2.30;;
68718;SDS011;55696;52.138;5.444;2023-03-14T14:15:57;9.25;;;1.45;;
68718;SDS011;55696;52.138;5.444;2023-03-14T14:18:27;8.97;;;1.57;;
68718;SDS011;55696;52.138;5.444;2023-03-14T14:20:54;5.32;;;1.60;;
68718;SDS011;55696;52.138;5.444;2023-03-14T14:23:22;11.60;;;1.75;;
68718;SDS011;55696;52.138;5.444;2023-03-14T14:25:57;8.68;;;1.45;;
68718;SDS011;55696;52.138;5.444;2023-03-14T14:28:29;6.53;;;1.45;;
68718;SDS011;55696;52.138;5.444;2023-03-14T14:33:53;7.63;;;1.40;;
68718;SDS011;55696;52.138;5.444;2023-03-14T14:36:23;10.80;;;1.98;;
68718;SDS011;55696;52.138;5.444;2023-03-14T14:38:59;6.10;;;1.05;;
68718;SDS011;55696;52.138;5.444;2023-03-14T14:41:27;6.32;;;2.40;;
68718;SDS011;55696;52.138;5.444;2023-03-14T14:43:57;9.40;;;1.30;;
68718;SDS011;55696;52.138;5.444;2023-03-14T14:46:26;9.07;;;2.03;;
68718;SDS011;55696;52.138;5.444;2023-03-14T14:48:55;5.40;;;1.65;;
68718;SDS011;55696;52.138;5.444;2023-03-14T14:51:31;4.05;;;1.50;;
68718;SDS011;55696;52.138;5.444;2023-03-14T14:54:00;7.18;;;1.63;;
68718;SDS011;55696;52.138;5.444;2023-03-14T14:56:29;3.47;;;1.00;;
68718;SDS011;55696;52.138;5.444;2023-03-14T14:59:00;8.93;;;1.60;;
68718;SDS011;55696;52.138;5.444;2023-03-14T15:01:36;7.75;;;1.23;;
68718;SDS011;55696;52.138;5.444;2023-03-14T15:04:10;11.45;;;1.85;;
68718;SDS011;55696;52.138;5.444;2023-03-14T15:06:40;10.65;;;1.80;;
68718;SDS011;55696;52.138;5.444;2023-03-14T15:09:12;8.23;;;1.63;;
68718;SDS011;55696;52.138;5.444;2023-03-14T15:11:39;8.38;;;1.30;;
68718;SDS011;55696;52.138;5.444;2023-03-14T15:14:06;9.07;;;1.55;;
68718;SDS011;55696;52.138;5.444;2023-03-14T15:16:33;6.32;;;1.30;;
68718;SDS011;55696;52.138;5.444;2023-03-14T15:19:00;5.60;;;1.20;;
68718;SDS011;55696;52.138;5.444;2023-03-14T15:21:48;12.53;;;1.83;;
68718;SDS011;55696;52.138;5.444;2023-03-14T15:24:15;5.35;;;1.05;;
68718;SDS011;55696;52.138;5.444;2023-03-14T15:26:42;6.07;;;1.25;;
68718;SDS011;55696;52.138;5.444;2023-03-14T15:29:10;12.30;;;1.15;;
68718;SDS011;55696;52.138;5.444;2023-03-14T15:31:39;7.07;;;1.33;;
68718;SDS011;55696;52.138;5.444;2023-03-14T15:34:07;6.47;;;1.63;;
68718;SDS011;55696;52.138;5.444;2023-03-14T15:36:35;4.80;;;1.50;;
68718;SDS011;55696;52.138;5.444;2023-03-14T15:39:04;7.45;;;1.48;;
68718;SDS011;55696;52.138;5.444;2023-03-14T15:41:32;4.43;;;1.30;;
68718;SDS011;55696;52.138;5.444;2023-03-14T15:43:59;6.28;;;1.48;;
68718;SDS011;55696;52.138;5.444;2023-03-14T15:46:26;6.07;;;1.57;;
68718;SDS011;55696;52.138;5.444;2023-03-14T15:48:56;3.30;;;1.40;;
68718;SDS011;55696;52.138;5.444;2023-03-14T15:51:23;8.85;;;1.33;;
68718;SDS011;55696;52.138;5.444;2023-03-14T15:53:49;9.40;;;1.63;;
68718;SDS011;55696;52.138;5.444;2023-03-14T15:56:18;9.85;;;1.50;;
68718;SDS011;55696;52.138;5.444;2023-03-14T15:58:45;5.97;;;1.20;;
68718;SDS011;55696;52.138;5.444;2023-03-14T16:01:13;6.00;;;1.50;;
68718;SDS011;55696;52.138;5.444;2023-03-14T16:03:43;6.18;;;1.40;;